createdAt,value
2023-02-04T00:01:07.026Z,3.70
2023-02-04T00:03:34.077Z,3.50
2023-02-04T00:06:01.035Z,3.30
2023-02-04T00:08:28.375Z,5.00
2023-02-04T00:10:55.524Z,3.50
2023-02-04T00:13:22.579Z,3.70
2023-02-04T00:15:49.667Z,4.30
2023-02-04T00:18:16.512Z,4.40
2023-02-04T00:20:43.508Z,4.20
2023-02-04T00:23:10.666Z,4.10
2023-02-04T00:25:37.806Z,3.40
2023-02-04T00:28:05.925Z,3.20
2023-02-04T00:30:33.548Z,4.00
2023-02-04T00:33:00.694Z,3.50
2023-02-04T00:35:27.611Z,3.10
2023-02-04T00:37:55.512Z,3.10
2023-02-04T00:40:22.368Z,3.00
2023-02-04T00:42:49.151Z,3.40
2023-02-04T00:45:16.866Z,2.90
2023-02-04T00:47:44.722Z,2.90
2023-02-04T00:50:11.566Z,2.90
2023-02-04T00:52:38.866Z,2.20
2023-02-04T00:55:07.510Z,2.60
2023-02-04T00:57:34.348Z,3.00
2023-02-04T01:00:01.466Z,2.60
2023-02-04T01:02:28.814Z,1.80
2023-02-04T01:04:56.013Z,2.10
2023-02-04T01:07:23.245Z,2.00
2023-02-04T01:09:50.577Z,2.80
2023-02-04T01:12:18.211Z,3.50
2023-02-04T01:14:45.738Z,2.70
2023-02-04T01:17:12.468Z,2.90
2023-02-04T01:19:39.219Z,2.40
2023-02-04T01:22:06.102Z,2.10
2023-02-04T01:24:33.402Z,2.70
2023-02-04T01:27:19.614Z,2.70
2023-02-04T01:29:47.276Z,2.80
2023-02-04T01:32:14.841Z,3.20
2023-02-04T01:34:43.017Z,2.90
2023-02-04T01:37:11.617Z,4.00
2023-02-04T01:39:38.950Z,2.70
2023-02-04T01:42:05.894Z,3.90
2023-02-04T01:44:32.826Z,4.00
2023-02-04T01:46:59.683Z,2.80
2023-02-04T01:49:27.478Z,3.10
2023-02-04T01:51:54.598Z,1.90
2023-02-04T01:54:21.647Z,2.30
2023-02-04T01:56:50.960Z,2.80
2023-02-04T01:59:18.098Z,2.60
2023-02-04T02:01:50.477Z,2.90
2023-02-04T02:04:44.771Z,2.90
2023-02-04T02:07:12.662Z,2.30
2023-02-04T02:09:39.671Z,3.30
2023-02-04T02:12:07.752Z,2.60
2023-02-04T02:14:34.790Z,2.50
2023-02-04T02:17:01.756Z,2.20
2023-02-04T02:19:33.188Z,2.00
2023-02-04T02:22:06.495Z,3.20
2023-02-04T02:24:34.459Z,3.50
2023-02-04T02:27:04.665Z,3.80
2023-02-04T02:29:31.517Z,3.00
2023-02-04T02:31:59.316Z,2.90
2023-02-04T02:34:26.942Z,3.50
2023-02-04T02:36:53.899Z,3.20
2023-02-04T02:39:20.935Z,2.70
2023-02-04T02:41:47.756Z,2.10
2023-02-04T02:44:14.580Z,2.30
2023-02-04T02:46:42.285Z,3.20
2023-02-04T02:49:16.159Z,2.40
2023-02-04T02:51:43.304Z,2.40
2023-02-04T02:54:23.481Z,2.50
2023-02-04T02:56:50.949Z,2.20
2023-02-04T02:59:18.408Z,2.40
2023-02-04T03:01:46.274Z,3.30
2023-02-04T03:04:13.208Z,2.50
2023-02-04T03:06:41.677Z,1.60
2023-02-04T03:09:08.757Z,1.80
2023-02-04T03:11:37.535Z,2.10
2023-02-04T03:14:04.752Z,2.20
2023-02-04T03:16:32.280Z,1.80
2023-02-04T03:19:00.216Z,2.40
2023-02-04T03:21:27.166Z,2.30
2023-02-04T03:23:56.193Z,3.30
2023-02-04T03:26:26.687Z,2.80
2023-02-04T03:28:53.941Z,1.80
2023-02-04T03:31:21.372Z,2.80
2023-02-04T03:33:48.709Z,3.90
2023-02-04T03:36:15.447Z,3.80
2023-02-04T03:38:42.440Z,3.10
2023-02-04T03:41:09.392Z,2.60
2023-02-04T03:43:36.174Z,3.00
2023-02-04T03:46:03.095Z,2.30
2023-02-04T03:48:29.940Z,3.40
2023-02-04T03:50:56.864Z,3.90
2023-02-04T03:53:24.013Z,3.10
2023-02-04T03:55:51.163Z,3.20
2023-02-04T03:58:18.313Z,3.00
2023-02-04T04:00:45.361Z,3.50
2023-02-04T04:03:12.409Z,4.20
2023-02-04T04:05:39.562Z,4.00
2023-02-04T04:08:06.344Z,4.60
2023-02-04T04:10:33.795Z,2.70
2023-02-04T04:13:01.522Z,4.00
2023-02-04T04:15:28.673Z,3.50
2023-02-04T04:17:55.721Z,2.30
2023-02-04T04:20:24.959Z,3.30
2023-02-04T04:22:52.070Z,2.10
2023-02-04T04:25:19.048Z,2.80
2023-02-04T04:27:46.111Z,2.40
2023-02-04T04:30:12.994Z,4.40
2023-02-04T04:32:40.360Z,5.80
2023-02-04T04:35:08.430Z,7.30
2023-02-04T04:37:35.479Z,8.70
2023-02-04T04:40:03.653Z,6.80
2023-02-04T04:42:30.902Z,5.30
2023-02-04T04:44:57.874Z,7.10
2023-02-04T04:47:24.628Z,5.50
2023-02-04T04:49:51.740Z,9.70
2023-02-04T04:52:18.786Z,13.60
2023-02-04T04:54:46.211Z,5.80
2023-02-04T04:57:13.408Z,5.10
2023-02-04T04:59:40.181Z,5.70
2023-02-04T05:02:06.977Z,3.90
2023-02-04T05:04:33.927Z,5.50
2023-02-04T05:07:01.076Z,4.10
2023-02-04T05:09:27.860Z,4.10
2023-02-04T05:11:54.867Z,2.60
2023-02-04T05:14:21.753Z,3.50
2023-02-04T05:16:50.219Z,4.20
2023-02-04T05:19:17.211Z,3.60
2023-02-04T05:21:44.289Z,2.50
2023-02-04T05:24:11.112Z,3.10
2023-02-04T05:26:38.087Z,2.90
2023-02-04T05:29:05.636Z,3.20
2023-02-04T05:31:33.742Z,3.50
2023-02-04T05:34:01.373Z,2.90
2023-02-04T05:36:28.110Z,3.30
2023-02-04T05:38:55.568Z,3.70
2023-02-04T05:41:22.519Z,2.70
2023-02-04T05:43:49.276Z,2.70
2023-02-04T05:46:16.308Z,3.90
2023-02-04T05:48:43.252Z,3.60
2023-02-04T05:51:10.303Z,3.10
2023-02-04T05:53:37.026Z,4.50
2023-02-04T05:56:04.336Z,4.10
2023-02-04T05:58:33.075Z,3.10
2023-02-04T06:01:01.015Z,3.70
2023-02-04T06:03:29.046Z,3.40
2023-02-04T06:05:56.661Z,4.50
2023-02-04T06:08:23.323Z,5.10
2023-02-04T06:10:50.055Z,4.40
2023-02-04T06:13:17.519Z,3.80
2023-02-04T06:15:44.255Z,3.80
2023-02-04T06:18:11.200Z,5.20
2023-02-04T06:20:38.245Z,4.80
2023-02-04T06:23:05.449Z,3.60
2023-02-04T06:25:34.593Z,5.10
2023-02-04T06:28:01.507Z,3.00
2023-02-04T06:30:28.667Z,3.10
2023-02-04T06:32:55.812Z,3.90
2023-02-04T06:35:22.743Z,4.90
2023-02-04T06:37:49.690Z,5.40
2023-02-04T06:40:16.996Z,4.70
2023-02-04T06:42:45.066Z,4.00
2023-02-04T06:45:11.976Z,4.60
2023-02-04T06:47:39.153Z,5.10
2023-02-04T06:50:06.578Z,3.70
2023-02-04T06:52:34.182Z,3.80
2023-02-04T06:55:01.122Z,3.90
2023-02-04T06:57:28.673Z,4.30
2023-02-04T06:59:55.619Z,4.50
2023-02-04T07:02:22.823Z,3.70
2023-02-04T07:04:49.715Z,3.00
2023-02-04T07:07:16.766Z,3.90
2023-02-04T07:09:43.811Z,3.00
2023-02-04T07:12:10.860Z,2.60
2023-02-04T07:14:38.689Z,2.50
2023-02-04T07:17:05.670Z,2.20
2023-02-04T07:19:33.232Z,3.00
2023-02-04T07:22:00.382Z,2.90
2023-02-04T07:24:27.841Z,3.40
2023-02-04T07:26:54.650Z,3.40
2023-02-04T07:29:25.684Z,2.90
2023-02-04T07:31:53.615Z,2.30
2023-02-04T07:34:20.930Z,2.90
2023-02-04T07:36:48.009Z,3.60
2023-02-04T07:39:15.144Z,2.90
2023-02-04T07:41:41.933Z,1.90
2023-02-04T07:44:09.249Z,2.20
2023-02-04T07:48:45.845Z,2.80
2023-02-04T07:51:12.786Z,3.20
2023-02-04T07:53:39.938Z,2.10
2023-02-04T07:56:06.878Z,2.30
2023-02-04T07:58:34.028Z,2.20
2023-02-04T08:01:02.540Z,2.20
2023-02-04T08:03:29.556Z,2.50
2023-02-04T08:05:57.013Z,2.00
2023-02-04T08:08:24.059Z,2.40
2023-02-04T08:10:51.209Z,2.30
2023-02-04T08:13:18.309Z,2.60
2023-02-04T08:15:45.467Z,2.80
2023-02-04T08:18:12.427Z,3.00
2023-02-04T08:20:39.197Z,2.00
2023-02-04T08:23:06.240Z,2.50
2023-02-04T08:25:33.703Z,2.90
2023-02-04T08:28:00.816Z,1.50
2023-02-04T08:30:28.202Z,2.00
2023-02-04T08:32:55.248Z,2.30
2023-02-04T08:35:22.327Z,1.70
2023-02-04T08:37:49.238Z,2.60
2023-02-04T08:40:16.119Z,1.80
2023-02-04T08:42:44.154Z,2.60
2023-02-04T08:45:11.005Z,3.30
2023-02-04T08:47:38.257Z,1.80
2023-02-04T08:50:05.822Z,2.00
2023-02-04T08:52:33.183Z,2.00
2023-02-04T08:55:00.138Z,1.10
2023-02-04T08:57:27.076Z,3.20
2023-02-04T08:59:53.964Z,1.70
2023-02-04T09:02:20.919Z,1.90
2023-02-04T09:04:48.235Z,1.70
2023-02-04T09:07:15.072Z,1.20
2023-02-04T09:09:42.840Z,1.80
2023-02-04T09:12:09.780Z,1.50
2023-02-04T09:14:38.261Z,1.90
2023-02-04T09:17:05.412Z,1.20
2023-02-04T09:19:32.973Z,2.00
2023-02-04T09:22:00.201Z,1.60
2023-02-04T09:24:27.256Z,1.60
2023-02-04T09:26:54.641Z,1.30
2023-02-04T09:29:21.589Z,1.50
2023-02-04T09:31:48.742Z,1.30
2023-02-04T09:34:15.784Z,1.20
2023-02-04T09:36:42.560Z,1.40
2023-02-04T09:39:09.612Z,2.00
2023-02-04T09:41:39.871Z,1.40
2023-02-04T09:44:11.999Z,1.50
2023-02-04T10:06:23.814Z,1.60
2023-02-04T10:08:52.149Z,1.50
2023-02-04T10:11:22.003Z,1.80
2023-02-04T10:13:53.968Z,1.40
2023-02-04T10:16:31.274Z,1.10
2023-02-04T10:19:02.969Z,1.80
2023-02-04T10:21:32.543Z,2.00
2023-02-04T10:24:01.831Z,1.00
2023-02-04T10:26:31.423Z,1.10
2023-02-04T10:29:04.507Z,1.50
2023-02-04T10:31:40.650Z,1.20
2023-02-04T10:34:16.837Z,1.00
2023-02-04T10:36:48.297Z,1.50
2023-02-04T10:39:21.469Z,1.00
2023-02-04T10:41:51.808Z,0.90
2023-02-04T10:44:25.517Z,1.20
2023-02-04T10:47:02.466Z,0.90
2023-02-04T10:49:33.227Z,1.70
2023-02-04T10:52:01.400Z,1.10
2023-02-04T10:54:35.715Z,1.20
2023-02-04T10:57:24.686Z,1.20
2023-02-04T11:00:01.500Z,1.30
2023-02-04T11:02:44.793Z,1.40
2023-02-04T11:05:18.393Z,1.40
2023-02-04T11:07:47.865Z,1.00
2023-02-04T11:10:29.745Z,1.00
2023-02-04T11:12:58.083Z,0.90
2023-02-04T11:15:49.147Z,1.30
2023-02-04T11:18:21.169Z,1.40
2023-02-04T11:20:52.549Z,1.40
2023-02-04T11:23:26.953Z,1.60
2023-02-04T11:26:10.363Z,1.20
2023-02-04T11:29:01.265Z,1.60
2023-02-04T11:31:32.792Z,1.30
2023-02-04T11:34:16.506Z,1.50
2023-02-04T11:37:01.812Z,1.70
2023-02-04T11:39:36.260Z,1.70
2023-02-04T11:42:05.883Z,1.40
2023-02-04T11:44:34.757Z,2.00
2023-02-04T11:47:03.321Z,2.00
2023-02-04T11:49:31.911Z,2.00
2023-02-04T11:52:10.285Z,2.60
2023-02-04T11:54:39.313Z,2.20
2023-02-04T11:57:11.391Z,2.30
2023-02-04T11:59:42.318Z,3.40
2023-02-04T12:02:18.820Z,2.70
2023-02-04T12:04:53.722Z,2.40
2023-02-04T12:07:25.387Z,2.20
2023-02-04T12:09:53.659Z,2.40
2023-02-04T12:12:27.518Z,1.90
2023-02-04T12:15:15.172Z,2.50
2023-02-04T12:17:47.075Z,1.90
2023-02-04T12:20:15.261Z,1.70
2023-02-04T12:22:43.812Z,1.40
2023-02-04T12:25:17.010Z,1.40
2023-02-04T12:27:45.249Z,1.80
2023-02-04T12:30:14.196Z,2.10
2023-02-04T12:32:42.552Z,2.10
2023-02-04T12:35:10.827Z,1.80
2023-02-04T12:37:39.185Z,1.70
2023-02-04T12:40:08.605Z,1.60
2023-02-04T12:42:36.885Z,2.60
2023-02-04T12:45:05.466Z,2.00
2023-02-04T12:47:34.017Z,1.70
2023-02-04T12:50:02.435Z,2.50
2023-02-04T12:52:31.217Z,2.30
2023-02-04T12:55:01.442Z,2.80
2023-02-04T12:57:33.609Z,3.10
2023-02-04T13:00:01.882Z,1.70
2023-02-04T13:02:30.610Z,2.20
2023-02-04T13:05:00.788Z,2.10
2023-02-04T13:07:29.685Z,3.00
2023-02-04T13:10:00.351Z,1.70
2023-02-04T13:12:29.000Z,1.20
2023-02-04T13:15:00.761Z,1.10
2023-02-04T13:17:29.956Z,1.50
2023-02-04T13:31:35.562Z,1.20
2023-02-04T13:34:03.848Z,0.90
2023-02-04T13:36:32.495Z,0.90
2023-02-04T13:52:11.218Z,1.40
2023-02-04T13:54:40.427Z,1.40
2023-02-04T13:57:08.843Z,1.70
2023-02-04T13:59:37.318Z,1.20
2023-02-04T14:02:05.613Z,1.30
2023-02-04T14:04:35.390Z,1.40
2023-02-04T14:19:24.328Z,1.40
2023-02-04T14:21:54.273Z,1.00
2023-02-04T14:24:22.552Z,1.10
2023-02-04T14:40:18.926Z,1.20
2023-02-04T14:42:46.281Z,0.90
2023-02-04T14:45:13.666Z,1.00
2023-02-04T14:47:41.190Z,1.00
2023-02-04T14:50:11.314Z,1.30
2023-02-04T14:52:38.403Z,0.90
2023-02-04T14:55:06.051Z,1.30
2023-02-04T14:57:33.274Z,0.80
2023-02-04T15:00:00.128Z,1.10
2023-02-04T15:02:27.051Z,0.90
2023-02-04T15:04:55.135Z,1.30
2023-02-04T15:07:23.004Z,1.40
2023-02-04T15:09:49.948Z,1.20
2023-02-04T15:12:17.098Z,1.10
2023-02-04T15:14:43.843Z,0.80
2023-02-04T15:17:10.855Z,1.20
2023-02-04T15:19:38.241Z,0.90
2023-02-04T15:22:05.291Z,1.30
2023-02-04T15:24:32.721Z,1.80
2023-02-04T15:26:59.885Z,2.00
2023-02-04T15:29:26.748Z,1.60
2023-02-04T15:31:53.883Z,2.40
2023-02-04T15:34:20.577Z,1.30
2023-02-04T15:36:47.575Z,1.00
2023-02-04T15:39:14.413Z,0.90
2023-02-04T15:43:39.288Z,1.40
2023-02-04T15:46:07.526Z,1.20
2023-02-04T15:48:36.676Z,1.20
2023-02-04T15:51:05.246Z,0.90
2023-02-04T15:53:34.968Z,1.20
2023-02-04T15:56:05.122Z,2.10
2023-02-04T15:58:33.354Z,1.40
2023-02-04T16:01:02.605Z,1.90
2023-02-04T16:03:31.549Z,1.70
2023-02-04T16:05:59.928Z,1.10
2023-02-04T16:08:28.516Z,1.50
2023-02-04T16:10:58.393Z,1.20
2023-02-04T16:13:26.727Z,1.10
2023-02-04T16:15:55.115Z,2.00
2023-02-04T16:18:25.328Z,1.60
2023-02-04T16:20:56.346Z,1.50
2023-02-04T16:23:24.602Z,1.50
2023-02-04T16:25:53.106Z,1.90
2023-02-04T16:28:23.750Z,1.20
2023-02-04T16:30:52.096Z,1.70
2023-02-04T16:33:20.799Z,2.20
2023-02-04T16:35:59.829Z,2.00
2023-02-04T16:38:28.575Z,1.50
2023-02-04T16:40:57.297Z,1.90
2023-02-04T16:43:25.772Z,1.80
2023-02-04T16:45:54.343Z,1.40
2023-02-04T16:48:22.431Z,1.30
2023-02-04T16:50:53.685Z,2.00
2023-02-04T16:53:22.221Z,1.20
2023-02-04T16:55:50.333Z,1.40
2023-02-04T16:58:19.900Z,1.80
2023-02-04T17:00:48.376Z,2.20
2023-02-04T17:03:16.810Z,1.90
2023-02-04T17:05:45.181Z,1.40
2023-02-04T17:08:15.241Z,2.10
2023-02-04T17:11:02.105Z,1.30
2023-02-04T17:13:30.590Z,1.20
2023-02-04T17:16:01.389Z,1.70
2023-02-04T17:18:30.520Z,2.00
2023-02-04T17:20:59.442Z,2.60
2023-02-04T17:23:28.815Z,1.10
2023-02-04T17:25:57.454Z,1.40
2023-02-04T17:28:26.531Z,2.90
2023-02-04T17:30:55.038Z,1.50
2023-02-04T17:33:23.465Z,1.90
2023-02-04T17:35:51.945Z,1.80
2023-02-04T17:38:20.322Z,3.00
2023-02-04T18:01:26.032Z,1.20
2023-02-04T18:03:54.753Z,1.40
2023-02-04T18:06:27.316Z,1.70
2023-02-04T18:09:02.235Z,1.50
2023-02-04T18:11:36.018Z,1.30
2023-02-04T18:14:24.440Z,1.50
2023-02-04T18:16:57.777Z,0.90
2023-02-04T18:19:30.141Z,0.90
2023-02-04T18:21:58.878Z,1.00
2023-02-04T18:24:30.549Z,1.20
2023-02-04T18:27:06.329Z,1.10
2023-02-04T18:29:34.626Z,1.00
2023-02-04T18:32:06.594Z,1.50
2023-02-04T18:34:40.405Z,0.80
2023-02-04T18:37:34.003Z,0.90
2023-02-04T18:40:31.223Z,0.60
2023-02-04T18:43:15.190Z,0.80
2023-02-04T18:45:43.356Z,0.70
2023-02-04T18:48:20.860Z,0.90
2023-02-04T18:50:51.605Z,1.10
2023-02-04T18:53:27.907Z,1.00
2023-02-04T18:55:58.128Z,1.10
2023-02-04T18:58:36.293Z,1.30
2023-02-04T19:01:10.520Z,0.70
2023-02-04T19:03:46.590Z,0.80
2023-02-04T19:06:32.022Z,0.70
2023-02-04T19:09:12.654Z,1.10
2023-02-04T19:11:49.051Z,0.80
2023-02-04T19:14:35.566Z,0.90
2023-02-04T19:20:00.532Z,0.90
2023-02-04T19:22:40.171Z,1.40
2023-02-04T19:25:37.212Z,0.60
2023-02-04T19:28:28.305Z,0.80
2023-02-04T19:31:00.456Z,0.70
2023-02-04T19:33:42.363Z,0.80
2023-02-04T19:36:31.137Z,0.80
2023-02-04T19:39:01.067Z,0.90
2023-02-04T19:41:30.435Z,0.80
2023-02-04T19:44:08.365Z,0.60
2023-02-04T19:46:37.404Z,1.20
2023-02-04T19:49:23.559Z,0.80
2023-02-04T19:51:54.532Z,1.00
2023-02-04T19:54:36.126Z,0.70
2023-02-04T19:57:37.462Z,0.90
2023-02-04T20:00:25.703Z,0.80
2023-02-04T20:02:53.803Z,1.10
2023-02-04T20:05:29.375Z,1.20
2023-02-04T20:08:27.465Z,0.90
2023-02-04T20:10:55.871Z,1.40
2023-02-04T20:13:25.102Z,0.90
2023-02-04T20:15:53.202Z,1.20
2023-02-04T20:18:26.651Z,1.60
2023-02-04T20:20:55.645Z,1.10
2023-02-04T20:23:23.785Z,0.50
2023-02-04T20:25:51.866Z,1.10
2023-02-04T20:28:20.354Z,1.10
2023-02-04T20:30:50.218Z,1.10
2023-02-04T20:33:32.411Z,1.40
2023-02-04T20:36:30.152Z,0.80
2023-02-04T20:39:20.186Z,1.10
2023-02-04T20:41:48.294Z,0.90
2023-02-04T20:44:27.542Z,2.00
2023-02-04T20:47:02.194Z,1.40
2023-02-04T20:49:38.272Z,1.30
2023-02-04T20:52:31.197Z,1.30
2023-02-04T20:55:00.789Z,1.00
2023-02-04T20:57:29.143Z,1.40
2023-02-04T20:59:57.585Z,1.50
2023-02-04T21:02:28.648Z,1.50
2023-02-04T21:04:56.953Z,0.90
2023-02-04T21:07:25.326Z,1.70
2023-02-04T21:09:58.131Z,0.90
2023-02-04T21:12:27.437Z,1.40
2023-02-04T21:14:55.848Z,1.50
2023-02-04T21:17:24.010Z,1.40
2023-02-04T21:19:52.227Z,1.40
2023-02-04T21:22:20.281Z,1.40
2023-02-04T21:24:48.345Z,2.00
2023-02-04T21:27:17.764Z,1.50
2023-02-04T21:29:45.964Z,1.60
2023-02-04T21:32:14.046Z,1.10
2023-02-04T21:34:42.081Z,1.30
2023-02-04T21:37:10.400Z,1.30
2023-02-04T21:39:38.686Z,1.80
2023-02-04T21:42:14.075Z,1.30
2023-02-04T21:44:42.436Z,1.50
2023-02-04T21:47:10.978Z,1.20
2023-02-04T21:49:41.348Z,1.30
2023-02-04T21:52:11.255Z,1.20
2023-02-04T21:54:39.319Z,1.10
2023-02-04T21:57:08.050Z,1.50
2023-02-04T21:59:36.404Z,0.60
2023-02-04T22:02:04.495Z,1.50
2023-02-04T22:04:32.653Z,1.60
2023-02-04T22:07:02.410Z,1.10
2023-02-04T22:09:30.705Z,1.20
2023-02-04T22:11:58.927Z,1.00
2023-02-04T22:14:26.968Z,1.30
2023-02-04T22:16:55.135Z,1.70
2023-02-04T22:19:23.777Z,1.10
2023-02-04T22:21:52.258Z,1.00
2023-02-04T22:24:20.285Z,1.30
2023-02-04T22:26:51.618Z,1.10
2023-02-04T22:29:23.564Z,1.00
2023-02-04T22:31:51.912Z,1.70
2023-02-04T22:34:20.192Z,1.40
2023-02-04T22:36:48.884Z,1.30
2023-02-04T22:39:16.906Z,1.20
2023-02-04T22:41:45.188Z,1.00
2023-02-04T22:44:13.577Z,1.90
2023-02-04T22:46:41.914Z,1.20
2023-02-04T22:49:10.138Z,1.20
2023-02-04T22:51:38.560Z,1.20
2023-02-04T22:54:06.809Z,1.40
2023-02-04T22:56:35.085Z,0.80
2023-02-04T22:59:04.360Z,1.40
2023-02-04T23:01:32.585Z,0.70
2023-02-04T23:04:00.830Z,1.20
2023-02-04T23:06:29.182Z,1.10
2023-02-04T23:08:57.516Z,1.20
2023-02-04T23:11:26.037Z,1.40
2023-02-04T23:13:54.413Z,1.40
2023-02-04T23:16:22.493Z,0.90
2023-02-04T23:18:50.567Z,1.50
2023-02-04T23:21:20.944Z,0.70
2023-02-04T23:23:49.689Z,1.10
2023-02-04T23:26:17.751Z,1.50
2023-02-04T23:28:46.748Z,2.10
2023-02-04T23:31:14.940Z,1.70
2023-02-04T23:33:43.151Z,0.70
2023-02-04T23:36:11.433Z,1.50
2023-02-04T23:38:39.500Z,1.00
2023-02-04T23:41:08.130Z,1.80
2023-02-04T23:43:36.546Z,1.60
2023-02-04T23:46:04.836Z,1.00
2023-02-04T23:48:33.244Z,1.10
2023-02-04T23:51:02.657Z,1.30
2023-02-04T23:53:31.246Z,1.70
2023-02-04T23:56:00.282Z,1.50
2023-02-04T23:58:28.639Z,1.10
